createdAt,value
2022-08-08T00:00:51.175Z,69.28
2022-08-08T00:02:03.749Z,69.00
2022-08-08T00:03:19.893Z,68.79
2022-08-08T00:04:35.171Z,68.43
2022-08-08T00:06:02.746Z,67.91
2022-08-08T00:07:24.444Z,67.42
2022-08-08T00:08:43.469Z,67.31
2022-08-08T00:10:03.511Z,67.29
2022-08-08T00:11:14.799Z,67.18
2022-08-08T00:12:24.753Z,67.04
2022-08-08T00:14:16.902Z,67.07
2022-08-08T00:15:56.999Z,66.79
2022-08-08T00:17:23.262Z,66.56
2022-08-08T00:18:43.934Z,66.63
2022-08-08T00:19:51.458Z,66.60
2022-08-08T00:20:56.868Z,66.96
2022-08-08T00:22:10.238Z,67.71
2022-08-08T00:23:21.280Z,68.38
2022-08-08T00:24:37.270Z,68.92
2022-08-08T00:25:46.419Z,69.34
2022-08-08T00:26:57.049Z,69.37
2022-08-08T00:28:02.029Z,69.77
2022-08-08T00:29:45.053Z,69.64
2022-08-08T00:31:01.005Z,69.75
2022-08-08T00:32:35.387Z,69.08
2022-08-08T00:34:17.226Z,68.58
2022-08-08T00:35:25.668Z,68.32
2022-08-08T00:36:35.183Z,68.31
2022-08-08T00:38:02.313Z,68.14
2022-08-08T00:41:07.486Z,68.77
2022-08-08T00:41:10.209Z,69.00
2022-08-08T00:42:36.781Z,69.27
2022-08-08T00:43:58.722Z,69.16
2022-08-08T00:45:39.431Z,69.57
2022-08-08T00:47:23.272Z,69.81
2022-08-08T00:48:40.531Z,69.47
2022-08-08T00:49:50.363Z,69.21
2022-08-08T00:51:09.788Z,68.99
2022-08-08T00:52:51.432Z,69.17
2022-08-08T00:54:28.703Z,68.85
2022-08-08T00:55:53.149Z,69.20
2022-08-08T00:57:07.593Z,69.38
2022-08-08T00:58:55.606Z,69.50
2022-08-08T01:00:17.241Z,69.62
2022-08-08T01:01:55.796Z,69.45
2022-08-08T01:04:01.557Z,69.22
2022-08-08T01:05:07.287Z,68.94
2022-08-08T01:06:47.527Z,69.02
2022-08-08T01:08:01.846Z,69.13
2022-08-08T01:09:35.100Z,69.01
2022-08-08T01:11:19.985Z,68.77
2022-08-08T01:12:41.983Z,68.62
2022-08-08T01:13:58.213Z,68.36
2022-08-08T01:15:47.083Z,68.72
2022-08-08T01:17:13.540Z,68.60
2022-08-08T01:18:56.758Z,68.71
2022-08-08T01:20:03.494Z,68.82
2022-08-08T01:21:14.372Z,68.73
2022-08-08T01:22:23.590Z,68.04
2022-08-08T01:24:05.460Z,67.74
2022-08-08T01:25:40.039Z,67.71
2022-08-08T01:26:55.763Z,67.11
2022-08-08T01:28:28.153Z,66.92
2022-08-08T01:29:59.273Z,66.35
2022-08-08T01:32:02.878Z,67.33
2022-08-08T01:33:28.036Z,67.89
2022-08-08T01:34:44.668Z,67.92
2022-08-08T01:36:28.431Z,67.76
2022-08-08T01:38:01.442Z,67.24
2022-08-08T01:39:42.409Z,68.36
2022-08-08T01:40:47.688Z,68.62
2022-08-08T01:42:11.217Z,69.12
2022-08-08T01:43:45.815Z,69.08
2022-08-08T01:45:04.416Z,69.18
2022-08-08T01:46:33.086Z,68.77
2022-08-08T01:48:23.330Z,68.82
2022-08-08T01:49:40.549Z,67.59
2022-08-08T01:51:00.938Z,67.44
2022-08-08T01:53:28.788Z,67.66
2022-08-08T01:55:17.135Z,68.19
2022-08-08T01:56:27.703Z,68.48
2022-08-08T01:58:11.215Z,69.06
2022-08-08T01:59:23.913Z,70.89
2022-08-08T02:00:58.209Z,71.42
2022-08-08T02:02:34.827Z,72.16
2022-08-08T02:04:08.778Z,72.43
2022-08-08T02:05:33.774Z,71.49
2022-08-08T02:07:00.832Z,71.69
2022-08-08T02:08:38.648Z,71.12
2022-08-08T02:10:30.174Z,71.11
2022-08-08T02:11:59.096Z,72.42
2022-08-08T02:13:11.032Z,72.15
2022-08-08T02:14:58.954Z,72.08
2022-08-08T02:16:20.890Z,72.13
2022-08-08T02:17:52.729Z,71.88
2022-08-08T02:19:56.953Z,71.83
2022-08-08T02:21:32.405Z,71.03
2022-08-08T02:22:57.125Z,71.22
2022-08-08T02:24:14.769Z,71.64
2022-08-08T02:25:47.160Z,71.38
2022-08-08T02:27:01.682Z,71.84
2022-08-08T02:28:54.335Z,71.73
2022-08-08T02:29:55.824Z,72.03
2022-08-08T02:31:54.128Z,71.80
2022-08-08T02:33:00.844Z,72.14
2022-08-08T02:34:09.906Z,71.98
2022-08-08T02:36:03.794Z,71.59
2022-08-08T02:37:52.773Z,71.77
2022-08-08T02:39:42.589Z,71.75
2022-08-08T02:40:56.727Z,71.54
2022-08-08T02:42:38.315Z,71.10
2022-08-08T02:44:42.463Z,71.01
2022-08-08T02:45:56.702Z,70.99
2022-08-08T02:47:24.976Z,71.49
2022-08-08T02:49:14.552Z,72.25
2022-08-08T02:51:11.761Z,72.31
2022-08-08T02:52:35.319Z,72.15
2022-08-08T02:54:07.461Z,72.11
2022-08-08T02:55:19.831Z,72.30
2022-08-08T02:56:48.215Z,73.06
2022-08-08T02:58:15.041Z,73.12
2022-08-08T02:59:58.537Z,73.37
2022-08-08T03:01:50.019Z,73.47
2022-08-08T03:03:10.768Z,73.42
2022-08-08T03:05:02.764Z,73.46
2022-08-08T03:06:24.152Z,74.23
2022-08-08T03:07:58.109Z,74.76
2022-08-08T03:09:21.770Z,74.63
2022-08-08T03:10:37.088Z,75.02
2022-08-08T03:12:14.015Z,75.08
2022-08-08T03:15:57.395Z,75.21
2022-08-08T03:15:58.850Z,75.11
2022-08-08T03:17:09.913Z,74.86
2022-08-08T03:18:31.099Z,74.95
2022-08-08T03:20:04.430Z,74.87
2022-08-08T03:21:14.655Z,74.63
2022-08-08T03:22:38.779Z,74.29
2022-08-08T03:23:54.792Z,73.46
2022-08-08T03:25:14.890Z,72.38
2022-08-08T03:26:30.843Z,72.18
2022-08-08T03:27:42.259Z,71.68
2022-08-08T03:28:47.408Z,71.49
2022-08-08T03:29:58.580Z,71.26
2022-08-08T03:31:25.318Z,70.78
2022-08-08T03:32:53.386Z,70.89
2022-08-08T03:34:01.222Z,70.59
2022-08-08T03:35:05.956Z,70.49
2022-08-08T03:36:19.462Z,70.55
2022-08-08T03:38:53.755Z,70.42
2022-08-08T03:38:57.777Z,71.25
2022-08-08T03:40:10.953Z,71.02
2022-08-08T03:42:12.711Z,70.96
2022-08-08T03:42:54.524Z,70.81
2022-08-08T03:43:59.496Z,70.48
2022-08-08T03:45:02.241Z,70.62
2022-08-08T03:46:25.433Z,70.58
2022-08-08T03:47:39.387Z,70.82
2022-08-08T03:49:30.151Z,71.46
2022-08-08T03:50:24.878Z,72.34
2022-08-08T03:51:50.309Z,72.53
2022-08-08T03:52:49.877Z,72.05
2022-08-08T03:53:55.075Z,72.32
2022-08-08T03:55:10.928Z,71.74
2022-08-08T03:56:31.988Z,70.98
2022-08-08T03:58:31.854Z,71.12
2022-08-08T03:58:55.732Z,70.98
2022-08-08T04:00:02.756Z,70.69
2022-08-08T04:01:23.633Z,70.60
2022-08-08T04:02:47.604Z,71.06
2022-08-08T04:03:58.748Z,70.65
2022-08-08T04:05:05.132Z,71.35
2022-08-08T04:06:11.993Z,71.31
2022-08-08T04:07:16.398Z,71.89
2022-08-08T04:08:33.879Z,72.77
2022-08-08T04:10:02.925Z,73.82
2022-08-08T04:10:59.679Z,73.50
2022-08-08T04:12:01.739Z,73.72
2022-08-08T04:13:17.298Z,73.75
2022-08-08T04:14:35.432Z,73.90
2022-08-08T04:15:38.904Z,74.68
2022-08-08T04:16:41.556Z,74.36
2022-08-08T04:17:46.305Z,74.95
2022-08-08T04:19:00.295Z,74.88
2022-08-08T04:20:04.924Z,75.30
2022-08-08T04:21:06.712Z,75.53
2022-08-08T04:22:10.141Z,75.28
2022-08-08T04:23:11.833Z,75.23
2022-08-08T04:24:28.718Z,75.28
2022-08-08T04:25:36.769Z,74.12
2022-08-08T04:26:57.585Z,74.36
2022-08-08T04:28:34.284Z,74.04
2022-08-08T04:29:22.029Z,73.96
2022-08-08T04:30:24.629Z,73.31
2022-08-08T04:31:56.960Z,73.69
2022-08-08T04:32:50.356Z,73.82
2022-08-08T04:33:52.599Z,74.77
2022-08-08T04:34:58.402Z,74.79
2022-08-08T04:36:00.413Z,75.04
2022-08-08T04:37:03.931Z,75.24
2022-08-08T04:38:06.282Z,74.43
2022-08-08T04:40:05.926Z,73.15
2022-08-08T04:40:33.043Z,72.56
2022-08-08T04:41:36.877Z,71.77
2022-08-08T04:42:56.051Z,71.96
2022-08-08T04:43:59.059Z,72.15
2022-08-08T04:45:01.042Z,72.53
2022-08-08T04:46:02.839Z,71.24
2022-08-08T04:47:05.462Z,70.79
2022-08-08T04:48:15.019Z,70.20
2022-08-08T04:49:16.876Z,69.57
2022-08-08T04:50:24.805Z,68.64
2022-08-08T04:51:54.980Z,68.68
2022-08-08T04:53:00.419Z,68.17
2022-08-08T04:54:38.727Z,67.09
2022-08-08T04:55:37.701Z,65.99
2022-08-08T04:56:50.034Z,64.92
2022-08-08T04:57:51.624Z,65.62
2022-08-08T04:58:53.415Z,65.00
2022-08-08T04:59:59.466Z,64.60
2022-08-08T05:01:05.745Z,63.96
2022-08-08T05:02:13.680Z,63.12
2022-08-08T05:03:18.501Z,62.44
2022-08-08T05:04:37.832Z,63.23
2022-08-08T05:05:44.932Z,62.39
2022-08-08T05:06:52.334Z,61.01
2022-08-08T05:07:54.608Z,60.57
2022-08-08T05:09:02.653Z,59.92
2022-08-08T05:10:05.328Z,60.43
2022-08-08T05:11:09.595Z,60.52
2022-08-08T05:12:20.615Z,59.77
2022-08-08T05:13:23.303Z,59.13
2022-08-08T05:14:29.225Z,59.36
2022-08-08T05:16:36.372Z,58.66
2022-08-08T05:17:01.464Z,57.58
2022-08-08T05:18:03.293Z,56.50
2022-08-08T05:19:05.764Z,55.92
2022-08-08T05:20:27.355Z,55.85
2022-08-08T05:21:29.511Z,55.73
2022-08-08T05:22:46.187Z,54.12
2022-08-08T05:23:50.726Z,54.04
2022-08-08T05:25:06.552Z,54.14
2022-08-08T05:26:08.142Z,55.63
2022-08-08T05:27:16.005Z,57.99
2022-08-08T05:28:48.401Z,58.11
2022-08-08T05:29:40.786Z,57.33
2022-08-08T05:30:47.291Z,57.31
2022-08-08T05:32:04.231Z,58.22
2022-08-08T05:33:07.282Z,57.61
2022-08-08T05:35:05.205Z,58.45
2022-08-08T05:36:10.542Z,59.24
2022-08-08T05:37:53.418Z,58.88
2022-08-08T05:38:51.303Z,57.99
2022-08-08T05:39:57.070Z,56.77
2022-08-08T05:40:59.181Z,56.48
2022-08-08T05:42:00.978Z,55.81
2022-08-08T05:43:17.290Z,55.16
2022-08-08T05:44:31.160Z,54.37
2022-08-08T05:45:42.952Z,54.34
2022-08-08T05:47:03.301Z,54.38
2022-08-08T05:48:08.157Z,54.36
2022-08-08T05:49:11.399Z,53.40
2022-08-08T05:50:13.205Z,53.11
2022-08-08T05:51:18.057Z,52.85
2022-08-08T05:52:20.245Z,52.55
2022-08-08T05:53:56.025Z,52.38
2022-08-08T05:55:02.034Z,51.42
2022-08-08T05:56:11.208Z,50.93
2022-08-08T05:57:36.672Z,50.68
2022-08-08T05:58:57.045Z,51.82
2022-08-08T06:00:23.137Z,53.36
2022-08-08T06:01:56.190Z,53.76
2022-08-08T06:03:08.023Z,54.55
2022-08-08T06:04:13.712Z,54.17
2022-08-08T06:05:34.597Z,53.53
2022-08-08T06:06:42.140Z,52.08
2022-08-08T06:07:51.089Z,51.79
2022-08-08T06:09:00.487Z,51.38
2022-08-08T06:10:24.755Z,51.70
2022-08-08T06:11:28.329Z,51.89
2022-08-08T06:12:33.971Z,51.53
2022-08-08T06:13:47.392Z,51.45
2022-08-08T06:14:49.691Z,51.52
2022-08-08T06:15:54.952Z,50.56
2022-08-08T06:17:01.065Z,49.50
2022-08-08T06:18:20.627Z,49.03
2022-08-08T06:19:24.359Z,47.83
2022-08-08T06:20:29.786Z,47.55
2022-08-08T06:21:48.542Z,46.96
2022-08-08T06:23:04.985Z,45.94
2022-08-08T06:24:23.137Z,45.51
2022-08-08T06:26:38.268Z,45.10
2022-08-08T06:27:04.901Z,46.02
2022-08-08T06:28:15.199Z,45.95
2022-08-08T06:30:00.314Z,46.30
2022-08-08T06:31:00.794Z,45.54
2022-08-08T06:32:11.463Z,45.96
2022-08-08T06:33:36.887Z,44.95
2022-08-08T06:34:56.297Z,44.95
2022-08-08T06:36:11.641Z,44.52
2022-08-08T06:37:36.941Z,44.01
2022-08-08T06:38:45.747Z,43.76
2022-08-08T06:39:56.296Z,44.70
2022-08-08T06:41:06.648Z,44.53
2022-08-08T06:42:13.089Z,43.56
2022-08-08T06:43:28.326Z,42.95
2022-08-08T06:44:31.552Z,43.30
2022-08-08T06:45:34.113Z,43.43
2022-08-08T06:46:35.974Z,44.01
2022-08-08T06:47:52.123Z,44.26
2022-08-08T06:49:00.804Z,45.63
2022-08-08T06:50:04.144Z,45.33
2022-08-08T06:51:08.360Z,44.76
2022-08-08T06:52:10.972Z,44.32
2022-08-08T06:53:20.450Z,44.23
2022-08-08T06:54:23.381Z,44.88
2022-08-08T06:55:25.855Z,43.70
2022-08-08T06:56:31.166Z,43.81
2022-08-08T06:57:44.490Z,43.38
2022-08-08T06:58:55.489Z,43.15
2022-08-08T07:00:09.931Z,43.23
2022-08-08T07:02:16.624Z,42.57
2022-08-08T07:02:45.125Z,42.58
2022-08-08T07:04:41.592Z,42.96
2022-08-08T07:05:25.151Z,43.50
2022-08-08T07:06:34.318Z,45.02
2022-08-08T07:07:37.123Z,46.56
2022-08-08T07:08:39.713Z,46.32
2022-08-08T07:10:07.914Z,45.06
2022-08-08T07:11:22.556Z,44.81
2022-08-08T07:12:47.851Z,44.31
2022-08-08T07:14:00.268Z,43.93
2022-08-08T07:15:15.370Z,43.76
2022-08-08T07:17:08.837Z,43.18
2022-08-08T07:18:36.317Z,43.08
2022-08-08T07:19:33.589Z,42.65
2022-08-08T07:20:50.419Z,42.79
2022-08-08T07:22:11.689Z,42.51
2022-08-08T07:23:29.990Z,42.59
2022-08-08T07:24:57.554Z,42.20
2022-08-08T07:26:03.129Z,42.03
2022-08-08T07:27:09.348Z,42.04
2022-08-08T07:28:31.573Z,42.11
2022-08-08T07:30:02.235Z,42.33
2022-08-08T07:30:59.151Z,41.46
2022-08-08T07:32:01.798Z,41.66
2022-08-08T07:33:06.882Z,41.65
2022-08-08T07:34:26.747Z,40.89
2022-08-08T07:35:35.491Z,41.19
2022-08-08T07:36:48.133Z,40.76
2022-08-08T07:38:04.861Z,41.27
2022-08-08T07:39:13.312Z,40.45
2022-08-08T07:40:29.138Z,39.90
2022-08-08T07:41:58.827Z,40.43
2022-08-08T07:42:54.995Z,40.01
2022-08-08T07:43:59.976Z,39.69
2022-08-08T07:45:01.851Z,38.93
2022-08-08T07:46:18.477Z,38.84
2022-08-08T07:47:38.115Z,38.00
2022-08-08T07:48:40.210Z,38.20
2022-08-08T07:49:46.238Z,38.80
2022-08-08T07:50:55.006Z,38.49
2022-08-08T07:51:58.162Z,38.62
2022-08-08T07:53:04.253Z,39.08
2022-08-08T07:54:41.380Z,38.97
2022-08-08T07:55:43.093Z,39.88
2022-08-08T07:57:19.762Z,40.72
2022-08-08T07:58:31.547Z,39.45
2022-08-08T07:59:49.517Z,41.17
2022-08-08T08:01:11.216Z,40.96
2022-08-08T08:02:35.302Z,40.66
2022-08-08T08:03:51.240Z,38.59
2022-08-08T08:05:00.980Z,39.44
2022-08-08T08:06:06.903Z,40.22
2022-08-08T08:07:10.499Z,39.96
2022-08-08T08:08:20.456Z,41.34
2022-08-08T08:09:26.466Z,40.84
2022-08-08T08:10:30.248Z,41.11
2022-08-08T08:11:51.688Z,41.36
2022-08-08T08:13:01.774Z,41.14
2022-08-08T08:14:09.597Z,41.97
2022-08-08T08:15:17.471Z,41.80
2022-08-08T08:16:23.637Z,42.20
2022-08-08T08:17:26.027Z,40.79
2022-08-08T08:18:58.278Z,41.49
2022-08-08T08:20:04.609Z,41.19
2022-08-08T08:21:14.518Z,40.57
2022-08-08T08:22:25.472Z,41.01
2022-08-08T08:23:40.861Z,40.75
2022-08-08T08:24:46.328Z,39.40
2022-08-08T08:25:52.069Z,38.18
2022-08-08T08:26:58.411Z,39.22
2022-08-08T08:28:00.433Z,38.71
2022-08-08T08:29:05.358Z,39.14
2022-08-08T08:30:08.861Z,38.67
2022-08-08T08:31:10.587Z,38.54
2022-08-08T08:32:12.239Z,38.91
2022-08-08T08:33:26.371Z,37.83
2022-08-08T08:34:32.424Z,37.95
2022-08-08T08:36:19.011Z,36.99
2022-08-08T08:36:56.939Z,38.74
2022-08-08T08:38:17.598Z,38.78
2022-08-08T08:39:23.051Z,38.57
2022-08-08T08:40:26.270Z,38.60
2022-08-08T08:41:31.034Z,39.21
2022-08-08T08:42:36.240Z,39.10
2022-08-08T08:43:42.463Z,39.07
2022-08-08T08:44:47.722Z,38.74
2022-08-08T08:45:50.857Z,38.14
2022-08-08T08:47:00.448Z,37.97
2022-08-08T08:48:04.717Z,38.17
2022-08-08T08:49:06.513Z,37.50
2022-08-08T08:50:27.873Z,38.19
2022-08-08T08:51:31.864Z,37.92
2022-08-08T08:52:48.878Z,38.27
2022-08-08T08:54:03.216Z,37.95
2022-08-08T08:55:05.606Z,37.51
2022-08-08T08:56:08.485Z,36.47
2022-08-08T08:57:17.120Z,37.43
2022-08-08T08:58:42.252Z,37.54
2022-08-08T08:59:59.654Z,37.16
2022-08-08T09:01:08.605Z,37.60
2022-08-08T09:02:20.891Z,37.34
2022-08-08T09:03:31.497Z,36.70
2022-08-08T09:04:50.008Z,35.85
2022-08-08T09:05:54.902Z,36.10
2022-08-08T09:06:59.401Z,35.86
2022-08-08T09:08:13.085Z,35.23
2022-08-08T09:09:41.184Z,35.21
2022-08-08T09:10:48.009Z,35.43
2022-08-08T09:12:02.041Z,35.46
2022-08-08T09:13:10.680Z,32.82
2022-08-08T09:14:14.544Z,32.99
2022-08-08T09:15:37.209Z,31.40
2022-08-08T09:16:38.999Z,30.00
2022-08-08T09:17:55.206Z,30.24
2022-08-08T09:18:58.711Z,31.40
2022-08-08T09:21:56.298Z,33.04
2022-08-08T09:21:58.843Z,32.84
2022-08-08T09:22:45.297Z,30.68
2022-08-08T09:23:47.799Z,31.12
2022-08-08T09:24:51.162Z,30.77
2022-08-08T09:26:32.543Z,31.14
2022-08-08T09:27:57.650Z,31.29
2022-08-08T09:29:06.533Z,30.30
2022-08-08T09:30:14.813Z,31.30
2022-08-08T09:31:57.600Z,30.15
2022-08-08T09:33:54.776Z,30.61
2022-08-08T09:34:32.872Z,29.79
2022-08-08T09:35:38.460Z,29.91
2022-08-08T09:37:29.169Z,28.56
2022-08-08T09:38:53.173Z,28.06
2022-08-08T09:40:10.847Z,28.03
2022-08-08T09:41:17.482Z,28.36
2022-08-08T09:42:25.713Z,28.09
2022-08-08T09:44:04.596Z,28.11
2022-08-08T09:45:20.509Z,28.27
2022-08-08T09:46:34.755Z,28.19
2022-08-08T09:48:04.076Z,28.29
2022-08-08T09:49:18.031Z,28.57
2022-08-08T09:50:32.570Z,29.24
2022-08-08T09:51:41.682Z,28.92
2022-08-08T09:53:23.872Z,29.27
2022-08-08T09:54:36.847Z,28.90
2022-08-08T09:56:03.547Z,29.21
2022-08-08T09:57:03.640Z,28.73
2022-08-08T09:58:07.726Z,28.71
2022-08-08T09:59:40.423Z,29.62
2022-08-08T10:00:53.461Z,28.84
2022-08-08T10:02:03.016Z,28.85
2022-08-08T10:03:19.981Z,29.05
2022-08-08T10:04:39.659Z,29.01
2022-08-08T10:05:46.891Z,29.01
2022-08-08T10:06:53.035Z,28.85
2022-08-08T10:08:00.185Z,29.36
2022-08-08T10:09:03.512Z,29.32
2022-08-08T10:10:07.074Z,28.99
2022-08-08T10:12:22.431Z,28.68
2022-08-08T10:12:38.682Z,28.86
2022-08-08T10:13:59.682Z,28.67
2022-08-08T10:15:04.743Z,28.08
2022-08-08T10:16:20.756Z,28.70
2022-08-08T10:17:56.147Z,28.63
2022-08-08T10:18:47.105Z,28.24
2022-08-08T10:20:00.370Z,28.16
2022-08-08T10:21:08.286Z,27.75
2022-08-08T10:22:26.848Z,27.70
2022-08-08T10:23:41.969Z,27.55
2022-08-08T10:24:46.904Z,27.59
2022-08-08T10:25:57.125Z,27.09
2022-08-08T10:27:05.333Z,27.36
2022-08-08T10:28:21.688Z,27.43
2022-08-08T10:29:59.916Z,27.53
2022-08-08T10:31:20.926Z,27.22
2022-08-08T10:32:50.963Z,26.85
2022-08-08T10:36:06.651Z,26.40
2022-08-08T10:36:41.135Z,26.80
2022-08-08T10:37:52.410Z,27.07
2022-08-08T10:39:02.748Z,27.04
2022-08-08T10:40:19.651Z,27.21
2022-08-08T10:41:25.915Z,27.20
2022-08-08T10:42:44.743Z,27.03
2022-08-08T10:43:50.590Z,26.96
2022-08-08T10:45:09.277Z,27.71
2022-08-08T10:46:29.545Z,27.83
2022-08-08T10:47:43.347Z,27.02
2022-08-08T10:48:58.438Z,27.24
2022-08-08T10:50:10.041Z,27.78
2022-08-08T10:51:17.144Z,27.86
2022-08-08T10:52:30.985Z,28.58
2022-08-08T10:53:39.244Z,28.50
2022-08-08T10:55:06.157Z,28.29
2022-08-08T10:56:10.282Z,28.06
2022-08-08T10:57:49.530Z,28.05
2022-08-08T10:59:03.913Z,28.20
2022-08-08T11:00:06.344Z,27.49
2022-08-08T11:01:12.710Z,27.85
2022-08-08T11:02:32.049Z,26.92
2022-08-08T11:04:01.449Z,26.88
2022-08-08T11:05:15.099Z,27.75
2022-08-08T11:06:19.666Z,26.71
2022-08-08T11:08:30.241Z,26.74
2022-08-08T11:09:14.988Z,27.60
2022-08-08T11:10:29.420Z,27.89
2022-08-08T11:12:06.126Z,27.30
2022-08-08T11:13:28.503Z,28.08
2022-08-08T11:14:28.756Z,27.78
2022-08-08T11:15:31.236Z,28.21
2022-08-08T11:16:35.974Z,28.50
2022-08-08T11:17:59.630Z,27.95
2022-08-08T11:19:04.630Z,28.37
2022-08-08T11:20:12.287Z,27.69
2022-08-08T11:21:20.448Z,28.36
2022-08-08T11:22:27.542Z,28.43
2022-08-08T11:23:35.034Z,27.12
2022-08-08T11:24:37.790Z,27.46
2022-08-08T11:25:52.005Z,27.83
2022-08-08T11:26:57.935Z,27.21
2022-08-08T11:28:01.603Z,27.58
2022-08-08T11:29:06.195Z,27.83
2022-08-08T11:30:20.456Z,27.52
2022-08-08T11:31:29.992Z,27.00
2022-08-08T11:32:47.321Z,28.13
2022-08-08T11:34:03.143Z,27.61
2022-08-08T11:35:24.517Z,27.52
2022-08-08T11:36:36.497Z,27.69
2022-08-08T11:38:35.919Z,27.28
2022-08-08T11:39:03.049Z,27.80
2022-08-08T11:40:07.277Z,27.93
2022-08-08T11:41:09.585Z,27.56
2022-08-08T11:42:12.396Z,27.95
2022-08-08T11:43:18.527Z,28.38
2022-08-08T11:44:29.087Z,28.10
2022-08-08T11:45:39.818Z,27.65
2022-08-08T11:46:57.865Z,27.70
2022-08-08T11:48:04.541Z,27.54
2022-08-08T11:49:14.006Z,27.83
2022-08-08T11:50:23.241Z,28.20
2022-08-08T11:51:29.891Z,28.31
2022-08-08T11:52:43.723Z,27.84
2022-08-08T11:53:55.099Z,27.68
2022-08-08T11:55:03.010Z,27.59
2022-08-08T11:56:18.949Z,27.28
2022-08-08T11:57:27.546Z,27.63
2022-08-08T11:58:34.951Z,26.78
2022-08-08T12:00:01.939Z,27.25
2022-08-08T12:01:12.248Z,26.55
2022-08-08T12:02:31.873Z,27.53
2022-08-08T12:03:34.709Z,26.82
2022-08-08T12:04:39.549Z,26.67
2022-08-08T12:05:41.835Z,27.02
2022-08-08T12:06:44.926Z,27.01
2022-08-08T12:07:52.929Z,27.24
2022-08-08T12:09:05.040Z,26.93
2022-08-08T12:10:15.040Z,27.04
2022-08-08T12:11:27.022Z,27.12
2022-08-08T12:12:41.692Z,27.85
2022-08-08T12:14:03.684Z,27.95
2022-08-08T12:15:06.294Z,27.25
2022-08-08T12:16:15.607Z,27.69
2022-08-08T12:17:17.450Z,27.50
2022-08-08T12:18:26.070Z,27.94
2022-08-08T12:19:37.458Z,27.62
2022-08-08T12:20:53.205Z,26.88
2022-08-08T12:22:08.899Z,26.85
2022-08-08T12:23:30.452Z,27.19
2022-08-08T12:24:48.418Z,26.96
2022-08-08T12:25:56.794Z,26.96
2022-08-08T12:26:59.184Z,26.69
2022-08-08T12:28:16.674Z,26.34
2022-08-08T12:29:40.580Z,26.56
2022-08-08T12:30:48.188Z,26.49
2022-08-08T12:32:09.556Z,26.67
2022-08-08T12:33:37.036Z,25.94
2022-08-08T12:35:04.865Z,26.08
2022-08-08T12:36:16.382Z,26.35
2022-08-08T12:37:41.462Z,26.16
2022-08-08T12:38:50.301Z,26.42
2022-08-08T12:40:23.084Z,26.52
2022-08-08T12:41:35.352Z,26.19
2022-08-08T12:42:48.835Z,25.55
2022-08-08T12:43:59.920Z,25.73
2022-08-08T12:45:53.804Z,25.60
2022-08-08T12:46:29.063Z,25.72
2022-08-08T12:47:58.803Z,26.15
2022-08-08T12:50:25.900Z,26.51
2022-08-08T12:51:39.868Z,26.59
2022-08-08T12:52:42.531Z,26.56
2022-08-08T12:54:00.467Z,26.20
2022-08-08T12:55:13.608Z,25.93
2022-08-08T12:56:23.851Z,26.57
2022-08-08T12:57:26.271Z,25.67
2022-08-08T12:58:30.261Z,25.92
2022-08-08T12:59:36.185Z,26.51
2022-08-08T13:00:46.691Z,26.30
2022-08-08T13:01:58.371Z,25.98
2022-08-08T13:03:01.161Z,26.23
2022-08-08T13:04:24.242Z,26.09
2022-08-08T13:06:02.964Z,26.43
2022-08-08T13:07:03.999Z,26.42
2022-08-08T13:08:18.151Z,26.52
2022-08-08T13:10:00.778Z,26.76
2022-08-08T13:11:02.478Z,26.11
2022-08-08T13:12:29.018Z,26.79
2022-08-08T13:13:36.800Z,26.01
2022-08-08T13:14:52.956Z,25.72
2022-08-08T13:15:56.165Z,25.79
2022-08-08T13:16:59.423Z,26.67
2022-08-08T13:18:11.065Z,26.03
2022-08-08T13:19:18.210Z,25.62
2022-08-08T13:20:24.049Z,25.77
2022-08-08T13:21:48.827Z,25.09
2022-08-08T13:22:59.278Z,25.19
2022-08-08T13:24:23.621Z,25.29
2022-08-08T13:25:35.754Z,25.23
2022-08-08T13:26:37.662Z,25.21
2022-08-08T13:27:39.859Z,25.34
2022-08-08T13:28:42.479Z,25.30
2022-08-08T13:29:53.113Z,25.37
2022-08-08T13:30:56.921Z,25.48
2022-08-08T13:32:03.559Z,25.13
2022-08-08T13:33:05.560Z,24.86
2022-08-08T13:34:11.743Z,25.39
2022-08-08T13:35:29.785Z,25.47
2022-08-08T13:36:40.574Z,25.69
2022-08-08T13:38:04.654Z,25.87
2022-08-08T13:39:07.642Z,25.64
2022-08-08T13:40:11.274Z,25.72
2022-08-08T13:41:19.972Z,25.67
2022-08-08T13:42:25.343Z,25.79
2022-08-08T13:43:27.650Z,25.80
2022-08-08T13:44:31.283Z,25.85
2022-08-08T13:45:33.051Z,26.29
2022-08-08T13:46:37.099Z,26.20
2022-08-08T13:47:40.310Z,25.67
2022-08-08T13:50:32.286Z,26.00
2022-08-08T13:50:35.038Z,25.99
2022-08-08T13:51:41.696Z,25.99
2022-08-08T13:52:51.055Z,26.05
2022-08-08T13:54:00.743Z,25.25
2022-08-08T13:55:05.891Z,25.44
2022-08-08T13:56:11.333Z,25.39
2022-08-08T13:57:16.332Z,25.10
2022-08-08T13:58:20.173Z,24.98
2022-08-08T13:59:46.484Z,25.32
2022-08-08T14:00:50.754Z,25.60
2022-08-08T14:01:57.141Z,26.12
2022-08-08T14:03:19.969Z,25.89
2022-08-08T14:04:28.556Z,26.27
2022-08-08T14:05:34.367Z,26.03
2022-08-08T14:06:44.682Z,26.50
2022-08-08T14:07:50.019Z,26.32
2022-08-08T14:08:56.866Z,26.02
2022-08-08T14:10:16.945Z,25.62
2022-08-08T14:11:21.733Z,25.79
2022-08-08T14:12:30.207Z,25.09
2022-08-08T14:13:33.902Z,25.57
2022-08-08T14:14:41.266Z,25.40
2022-08-08T14:15:46.374Z,25.35
2022-08-08T14:16:52.453Z,25.62
2022-08-08T14:17:58.236Z,25.69
2022-08-08T14:19:29.759Z,25.69
2022-08-08T14:20:56.526Z,25.55
2022-08-08T14:21:59.833Z,24.99
2022-08-08T14:23:21.537Z,25.40
2022-08-08T14:24:34.774Z,25.92
2022-08-08T14:25:46.427Z,25.42
2022-08-08T14:26:55.820Z,25.56
2022-08-08T14:28:08.228Z,25.59
2022-08-08T14:29:30.084Z,25.02
2022-08-08T14:30:35.252Z,25.37
2022-08-08T14:32:10.529Z,25.51
2022-08-08T14:33:15.216Z,26.20
2022-08-08T14:34:23.329Z,25.54
2022-08-08T14:35:36.173Z,24.96
2022-08-08T14:36:40.646Z,25.35
2022-08-08T14:37:57.163Z,24.95
2022-08-08T14:39:01.194Z,25.68
2022-08-08T14:40:05.712Z,25.66
2022-08-08T14:41:12.139Z,25.36
2022-08-08T14:42:13.831Z,25.81
2022-08-08T14:43:31.311Z,25.70
2022-08-08T14:44:41.917Z,25.46
2022-08-08T14:46:02.057Z,26.29
2022-08-08T14:47:20.999Z,25.85
2022-08-08T14:48:34.435Z,25.11
2022-08-08T14:50:06.685Z,25.27
2022-08-08T14:51:07.115Z,25.80
2022-08-08T14:52:09.305Z,25.07
2022-08-08T14:53:14.099Z,24.73
2022-08-08T14:54:16.193Z,24.71
2022-08-08T14:55:41.429Z,24.92
2022-08-08T14:56:44.268Z,24.94
2022-08-08T14:58:02.709Z,25.13
2022-08-08T14:59:22.238Z,24.32
2022-08-08T15:00:34.735Z,24.15
2022-08-08T15:01:40.732Z,24.30
2022-08-08T15:02:58.913Z,24.32
2022-08-08T15:04:09.539Z,24.58
2022-08-08T15:05:12.679Z,24.21
2022-08-08T15:06:16.607Z,24.72
2022-08-08T15:07:24.488Z,24.70
2022-08-08T15:08:38.948Z,24.82
2022-08-08T15:09:56.616Z,24.35
2022-08-08T15:11:00.249Z,24.48
2022-08-08T15:12:01.853Z,24.14
2022-08-08T15:13:05.155Z,24.16
2022-08-08T15:14:11.210Z,24.95
2022-08-08T15:15:18.695Z,24.70
2022-08-08T15:16:37.637Z,24.82
2022-08-08T15:17:46.705Z,24.82
2022-08-08T15:18:51.307Z,25.07
2022-08-08T15:19:53.481Z,25.05
2022-08-08T15:20:56.056Z,24.64
2022-08-08T15:21:57.830Z,24.87
2022-08-08T15:22:59.898Z,24.90
2022-08-08T15:24:03.537Z,24.79
2022-08-08T15:25:08.681Z,24.80
2022-08-08T15:26:20.454Z,25.42
2022-08-08T15:28:04.422Z,25.23
2022-08-08T15:28:43.772Z,25.32
2022-08-08T15:29:46.739Z,25.02
2022-08-08T15:30:48.876Z,24.42
2022-08-08T15:32:18.947Z,25.06
2022-08-08T15:33:34.979Z,24.72
2022-08-08T15:34:37.223Z,24.33
2022-08-08T15:35:41.474Z,24.96
2022-08-08T15:36:43.061Z,25.46
2022-08-08T15:37:44.874Z,25.21
2022-08-08T15:38:49.766Z,25.51
2022-08-08T15:39:53.109Z,25.51
2022-08-08T15:40:56.163Z,25.30
2022-08-08T15:41:57.797Z,24.84
2022-08-08T15:42:59.595Z,24.94
2022-08-08T15:44:01.686Z,25.39
2022-08-08T15:45:05.614Z,25.17
2022-08-08T15:46:07.219Z,25.37
2022-08-08T15:47:15.583Z,24.80
2022-08-08T15:48:20.367Z,25.81
2022-08-08T15:49:26.612Z,25.79
2022-08-08T15:50:49.312Z,26.26
2022-08-08T15:51:54.723Z,25.53
2022-08-08T15:52:58.678Z,25.36
2022-08-08T15:54:00.377Z,26.24
2022-08-08T15:55:02.107Z,25.89
2022-08-08T15:56:04.387Z,26.71
2022-08-08T15:57:10.073Z,27.20
2022-08-08T15:58:11.720Z,26.98
2022-08-08T15:59:14.060Z,27.30
2022-08-08T16:00:27.459Z,27.96
2022-08-08T16:01:40.982Z,27.49
2022-08-08T16:02:53.119Z,27.92
2022-08-08T16:03:57.393Z,28.35
2022-08-08T16:05:00.719Z,28.24